sensor_id;sensor_type;location;lat;lon;timestamp;pressure;altitude;pressure_sealevel;temperature;humidity
12215;BME280;6170;42.206;24.142;2023-03-03T00:01:14;99144.16;;;5.22;100.00
12215;BME280;6170;42.206;24.142;2023-03-03T00:03:42;99142.06;;;5.34;100.00
12215;BME280;6170;42.206;24.142;2023-03-03T00:06:10;99134.00;;;5.52;100.00
12215;BME280;6170;42.206;24.142;2023-03-03T00:08:39;99177.50;;;6.01;100.00
12215;BME280;6170;42.206;24.142;2023-03-03T00:11:07;99132.41;;;5.75;100.00
12215;BME280;6170;42.206;24.142;2023-03-03T00:13:42;99125.56;;;5.72;100.00
12215;BME280;6170;42.206;24.142;2023-03-03T00:16:14;99122.41;;;5.69;100.00
12215;BME280;6170;42.206;24.142;2023-03-03T00:18:43;99126.41;;;5.73;100.00
12215;BME280;6170;42.206;24.142;2023-03-03T00:21:25;99126.22;;;5.66;100.00
12215;BME280;6170;42.206;24.142;2023-03-03T00:24:01;99099.59;;;5.58;100.00
12215;BME280;6170;42.206;24.142;2023-03-03T00:26:38;99112.75;;;5.68;100.00
12215;BME280;6170;42.206;24.142;2023-03-03T00:29:25;99110.91;;;5.60;100.00
12215;BME280;6170;42.206;24.142;2023-03-03T00:31:52;99145.03;;;5.81;100.00
12215;BME280;6170;42.206;24.142;2023-03-03T00:34:24;99103.09;;;5.67;100.00
12215;BME280;6170;42.206;24.142;2023-03-03T00:36:54;99095.47;;;5.72;100.00
12215;BME280;6170;42.206;24.142;2023-03-03T00:39:27;99089.81;;;5.59;100.00
12215;BME280;6170;42.206;24.142;2023-03-03T00:41:55;99098.69;;;5.83;100.00
12215;BME280;6170;42.206;24.142;2023-03-03T00:44:38;99133.44;;;5.98;100.00
12215;BME280;6170;42.206;24.142;2023-03-03T00:47:30;99082.03;;;5.65;100.00
12215;BME280;6170;42.206;24.142;2023-03-03T00:50:26;99092.78;;;5.48;100.00
12215;BME280;6170;42.206;24.142;2023-03-03T00:53:00;99073.84;;;5.42;100.00
12215;BME280;6170;42.206;24.142;2023-03-03T00:55:30;99110.34;;;5.91;100.00
12215;BME280;6170;42.206;24.142;2023-03-03T00:57:57;99068.25;;;5.62;100.00
12215;BME280;6170;42.206;24.142;2023-03-03T01:00:24;99068.03;;;5.47;100.00
12215;BME280;6170;42.206;24.142;2023-03-03T01:02:51;99121.28;;;5.79;100.00
12215;BME280;6170;42.206;24.142;2023-03-03T01:05:19;99063.69;;;5.46;100.00
12215;BME280;6170;42.206;24.142;2023-03-03T01:07:46;99065.75;;;5.68;100.00
12215;BME280;6170;42.206;24.142;2023-03-03T01:10:13;99068.25;;;5.78;100.00
12215;BME280;6170;42.206;24.142;2023-03-03T01:12:41;99052.72;;;5.41;100.00
12215;BME280;6170;42.206;24.142;2023-03-03T01:15:10;99061.41;;;5.51;100.00
12215;BME280;6170;42.206;24.142;2023-03-03T01:17:38;99056.22;;;5.50;100.00
12215;BME280;6170;42.206;24.142;2023-03-03T01:20:07;99052.94;;;5.72;100.00
12215;BME280;6170;42.206;24.142;2023-03-03T01:22:34;99048.13;;;5.59;100.00
12215;BME280;6170;42.206;24.142;2023-03-03T01:25:02;99058.59;;;5.69;99.74
12215;BME280;6170;42.206;24.142;2023-03-03T01:27:29;99053.47;;;5.83;99.89
12215;BME280;6170;42.206;24.142;2023-03-03T01:29:58;99047.81;;;5.70;99.69
12215;BME280;6170;42.206;24.142;2023-03-03T01:32:26;99059.44;;;5.61;100.00
12215;BME280;6170;42.206;24.142;2023-03-03T01:34:53;99058.41;;;5.62;100.00
12215;BME280;6170;42.206;24.142;2023-03-03T01:37:20;99103.69;;;6.03;100.00
12215;BME280;6170;42.206;24.142;2023-03-03T01:39:48;99011.31;;;5.14;100.00
12215;BME280;6170;42.206;24.142;2023-03-03T01:42:16;99053.88;;;5.30;100.00
12215;BME280;6170;42.206;24.142;2023-03-03T01:44:44;99056.44;;;5.56;100.00
12215;BME280;6170;42.206;24.142;2023-03-03T01:47:14;99050.09;;;5.49;100.00
12215;BME280;6170;42.206;24.142;2023-03-03T01:49:46;99053.75;;;5.48;100.00
12215;BME280;6170;42.206;24.142;2023-03-03T01:52:20;99051.72;;;5.34;100.00
12215;BME280;6170;42.206;24.142;2023-03-03T01:54:56;99038.81;;;4.97;100.00
12215;BME280;6170;42.206;24.142;2023-03-03T01:57:26;99093.28;;;5.43;100.00
12215;BME280;6170;42.206;24.142;2023-03-03T01:59:56;99042.56;;;5.20;100.00
12215;BME280;6170;42.206;24.142;2023-03-03T02:02:26;99048.56;;;5.30;100.00
12215;BME280;6170;42.206;24.142;2023-03-03T02:04:54;99080.13;;;5.41;100.00
12215;BME280;6170;42.206;24.142;2023-03-03T02:07:22;99029.75;;;5.08;100.00
12215;BME280;6170;42.206;24.142;2023-03-03T02:09:54;99081.78;;;4.92;100.00
12215;BME280;6170;42.206;24.142;2023-03-03T02:12:27;99015.00;;;4.71;100.00
12215;BME280;6170;42.206;24.142;2023-03-03T02:14:57;99037.06;;;4.72;100.00
12215;BME280;6170;42.206;24.142;2023-03-03T02:17:26;99034.94;;;4.83;100.00
12215;BME280;6170;42.206;24.142;2023-03-03T02:19:58;99074.28;;;5.22;100.00
12215;BME280;6170;42.206;24.142;2023-03-03T02:22:33;99028.69;;;4.92;100.00
12215;BME280;6170;42.206;24.142;2023-03-03T02:25:07;99034.47;;;4.88;100.00
12215;BME280;6170;42.206;24.142;2023-03-03T02:27:38;99021.53;;;4.85;100.00
12215;BME280;6170;42.206;24.142;2023-03-03T02:30:12;99023.50;;;4.83;100.00
12215;BME280;6170;42.206;24.142;2023-03-03T02:32:39;99021.19;;;4.88;100.00
12215;BME280;6170;42.206;24.142;2023-03-03T02:35:25;99069.66;;;5.32;100.00
12215;BME280;6170;42.206;24.142;2023-03-03T02:37:56;99019.31;;;5.22;100.00
12215;BME280;6170;42.206;24.142;2023-03-03T02:40:27;99015.50;;;5.17;100.00
12215;BME280;6170;42.206;24.142;2023-03-03T02:43:00;99044.22;;;5.13;100.00
12215;BME280;6170;42.206;24.142;2023-03-03T02:45:29;99014.88;;;5.31;100.00
12215;BME280;6170;42.206;24.142;2023-03-03T02:47:56;99012.84;;;5.17;100.00
12215;BME280;6170;42.206;24.142;2023-03-03T02:50:23;99061.31;;;5.19;100.00
12215;BME280;6170;42.206;24.142;2023-03-03T02:52:50;99008.13;;;4.94;100.00
12215;BME280;6170;42.206;24.142;2023-03-03T02:55:17;99021.28;;;5.12;100.00
12215;BME280;6170;42.206;24.142;2023-03-03T02:57:44;99023.41;;;5.01;100.00
12215;BME280;6170;42.206;24.142;2023-03-03T03:00:13;99020.13;;;5.15;100.00
12215;BME280;6170;42.206;24.142;2023-03-03T03:02:40;99025.31;;;5.40;100.00
12215;BME280;6170;42.206;24.142;2023-03-03T03:05:07;99066.56;;;5.69;100.00
12215;BME280;6170;42.206;24.142;2023-03-03T03:07:34;99026.81;;;5.35;100.00
12215;BME280;6170;42.206;24.142;2023-03-03T03:10:01;99016.22;;;5.51;100.00
12215;BME280;6170;42.206;24.142;2023-03-03T03:12:28;99030.69;;;5.65;100.00
12215;BME280;6170;42.206;24.142;2023-03-03T03:14:55;99025.53;;;5.71;99.67
12215;BME280;6170;42.206;24.142;2023-03-03T03:17:24;99025.22;;;5.66;99.38
12215;BME280;6170;42.206;24.142;2023-03-03T03:19:51;99018.88;;;5.67;99.45
12215;BME280;6170;42.206;24.142;2023-03-03T03:22:18;99021.88;;;5.48;99.55
12215;BME280;6170;42.206;24.142;2023-03-03T03:24:45;99015.88;;;5.54;99.60
12215;BME280;6170;42.206;24.142;2023-03-03T03:27:12;99017.72;;;5.70;99.13
12215;BME280;6170;42.206;24.142;2023-03-03T03:29:39;99010.91;;;5.67;98.54
12215;BME280;6170;42.206;24.142;2023-03-03T03:32:06;99021.56;;;5.83;98.68
12215;BME280;6170;42.206;24.142;2023-03-03T03:34:34;99015.91;;;5.78;98.29
12215;BME280;6170;42.206;24.142;2023-03-03T03:37:01;99005.28;;;5.70;98.75
12215;BME280;6170;42.206;24.142;2023-03-03T03:39:28;99000.59;;;5.80;98.72
12215;BME280;6170;42.206;24.142;2023-03-03T03:41:55;99003.31;;;5.89;98.47
12215;BME280;6170;42.206;24.142;2023-03-03T03:44:22;99002.63;;;5.95;98.12
12215;BME280;6170;42.206;24.142;2023-03-03T03:46:49;99006.59;;;5.74;97.96
12215;BME280;6170;42.206;24.142;2023-03-03T03:49:16;98997.78;;;5.82;98.55
12215;BME280;6170;42.206;24.142;2023-03-03T03:51:45;99005.13;;;5.88;97.17
12215;BME280;6170;42.206;24.142;2023-03-03T03:54:12;99052.50;;;5.93;97.68
12215;BME280;6170;42.206;24.142;2023-03-03T03:56:39;98998.25;;;5.45;98.13
12215;BME280;6170;42.206;24.142;2023-03-03T03:59:06;99008.41;;;5.50;98.25
12215;BME280;6170;42.206;24.142;2023-03-03T04:01:33;99002.06;;;5.26;99.32
12215;BME280;6170;42.206;24.142;2023-03-03T04:04:00;99000.75;;;5.38;99.13
12215;BME280;6170;42.206;24.142;2023-03-03T04:06:27;99007.09;;;5.62;99.01
12215;BME280;6170;42.206;24.142;2023-03-03T04:08:55;99007.75;;;5.72;98.73
12215;BME280;6170;42.206;24.142;2023-03-03T04:11:22;99052.66;;;6.07;98.49
12215;BME280;6170;42.206;24.142;2023-03-03T04:13:49;99006.06;;;5.55;98.43
12215;BME280;6170;42.206;24.142;2023-03-03T04:16:17;99005.09;;;5.72;98.11
12215;BME280;6170;42.206;24.142;2023-03-03T04:18:44;98992.81;;;5.71;97.57
12215;BME280;6170;42.206;24.142;2023-03-03T04:21:15;98991.78;;;5.80;97.15
12215;BME280;6170;42.206;24.142;2023-03-03T04:23:42;99003.94;;;5.74;97.70
12215;BME280;6170;42.206;24.142;2023-03-03T04:26:10;99003.94;;;5.82;98.06
12215;BME280;6170;42.206;24.142;2023-03-03T04:28:37;99004.44;;;5.78;97.09
12215;BME280;6170;42.206;24.142;2023-03-03T04:31:04;99007.44;;;5.75;97.07
12215;BME280;6170;42.206;24.142;2023-03-03T04:33:31;98996.63;;;5.68;97.56
12215;BME280;6170;42.206;24.142;2023-03-03T04:35:58;99048.16;;;6.16;97.87
12215;BME280;6170;42.206;24.142;2023-03-03T04:38:25;99002.91;;;5.75;97.61
12215;BME280;6170;42.206;24.142;2023-03-03T04:40:52;99011.59;;;5.94;97.27
12215;BME280;6170;42.206;24.142;2023-03-03T04:43:20;99004.31;;;5.88;97.41
12215;BME280;6170;42.206;24.142;2023-03-03T04:45:47;99019.91;;;5.99;97.17
12215;BME280;6170;42.206;24.142;2023-03-03T04:48:14;99006.25;;;5.85;97.38
12215;BME280;6170;42.206;24.142;2023-03-03T04:50:41;99007.94;;;5.78;97.75
12215;BME280;6170;42.206;24.142;2023-03-03T04:53:08;99011.78;;;5.92;97.26
12215;BME280;6170;42.206;24.142;2023-03-03T04:55:36;99010.09;;;5.99;97.19
12215;BME280;6170;42.206;24.142;2023-03-03T04:58:03;99013.25;;;6.03;96.64
12215;BME280;6170;42.206;24.142;2023-03-03T05:00:31;99002.94;;;5.83;96.60
12215;BME280;6170;42.206;24.142;2023-03-03T05:02:58;98994.94;;;5.75;97.44
12215;BME280;6170;42.206;24.142;2023-03-03T05:05:25;99008.25;;;5.83;97.42
12215;BME280;6170;42.206;24.142;2023-03-03T05:07:52;99012.28;;;5.88;97.21
12215;BME280;6170;42.206;24.142;2023-03-03T05:10:19;99013.09;;;6.04;96.97
12215;BME280;6170;42.206;24.142;2023-03-03T05:12:46;99012.75;;;5.75;96.54
12215;BME280;6170;42.206;24.142;2023-03-03T05:15:13;99011.72;;;5.76;97.14
12215;BME280;6170;42.206;24.142;2023-03-03T05:17:41;99013.09;;;5.96;96.82
12215;BME280;6170;42.206;24.142;2023-03-03T05:20:10;99064.13;;;6.32;96.87
12215;BME280;6170;42.206;24.142;2023-03-03T05:22:37;99012.63;;;5.93;96.68
12215;BME280;6170;42.206;24.142;2023-03-03T05:25:05;98993.31;;;5.74;97.32
12215;BME280;6170;42.206;24.142;2023-03-03T05:27:33;99069.59;;;6.30;97.10
12215;BME280;6170;42.206;24.142;2023-03-03T05:30:00;99021.09;;;5.88;96.99
12215;BME280;6170;42.206;24.142;2023-03-03T05:32:27;99027.22;;;6.05;96.97
12215;BME280;6170;42.206;24.142;2023-03-03T05:34:56;99020.72;;;6.07;96.68
12215;BME280;6170;42.206;24.142;2023-03-03T05:37:23;99005.13;;;5.88;96.93
12215;BME280;6170;42.206;24.142;2023-03-03T05:39:50;99001.31;;;5.91;96.59
12215;BME280;6170;42.206;24.142;2023-03-03T05:42:17;99066.44;;;6.27;96.54
12215;BME280;6170;42.206;24.142;2023-03-03T05:44:44;99013.78;;;6.06;96.14
12215;BME280;6170;42.206;24.142;2023-03-03T05:47:11;99040.16;;;6.16;95.73
12215;BME280;6170;42.206;24.142;2023-03-03T05:49:38;99024.72;;;6.03;95.65
12215;BME280;6170;42.206;24.142;2023-03-03T05:52:07;99034.00;;;6.15;95.67
12215;BME280;6170;42.206;24.142;2023-03-03T05:54:34;99031.19;;;6.17;96.00
12215;BME280;6170;42.206;24.142;2023-03-03T05:57:01;99067.09;;;6.29;95.14
12215;BME280;6170;42.206;24.142;2023-03-03T05:59:28;99033.22;;;6.15;95.32
12215;BME280;6170;42.206;24.142;2023-03-03T06:01:55;99023.22;;;6.09;95.29
12215;BME280;6170;42.206;24.142;2023-03-03T06:04:22;99037.03;;;6.12;94.69
12215;BME280;6170;42.206;24.142;2023-03-03T06:06:49;99015.59;;;6.06;94.69
12215;BME280;6170;42.206;24.142;2023-03-03T06:09:17;99035.50;;;6.34;94.48
12215;BME280;6170;42.206;24.142;2023-03-03T06:11:45;99035.84;;;6.23;94.57
12215;BME280;6170;42.206;24.142;2023-03-03T06:14:12;99070.91;;;6.43;94.21
12215;BME280;6170;42.206;24.142;2023-03-03T06:16:39;99035.84;;;6.31;93.88
12215;BME280;6170;42.206;24.142;2023-03-03T06:19:06;99029.84;;;6.21;93.55
12215;BME280;6170;42.206;24.142;2023-03-03T06:21:33;99038.34;;;6.32;93.12
12215;BME280;6170;42.206;24.142;2023-03-03T06:23:59;99047.31;;;6.07;94.07
12215;BME280;6170;42.206;24.142;2023-03-03T06:26:28;99044.34;;;6.18;94.04
12215;BME280;6170;42.206;24.142;2023-03-03T06:28:55;99033.53;;;6.28;94.00
12215;BME280;6170;42.206;24.142;2023-03-03T06:31:22;99048.16;;;6.08;93.82
12215;BME280;6170;42.206;24.142;2023-03-03T06:33:49;99051.16;;;6.13;93.77
12215;BME280;6170;42.206;24.142;2023-03-03T06:36:16;99039.84;;;6.19;94.31
12215;BME280;6170;42.206;24.142;2023-03-03T06:38:43;99046.84;;;5.96;95.15
12215;BME280;6170;42.206;24.142;2023-03-03T06:41:10;99088.59;;;6.19;95.80
12215;BME280;6170;42.206;24.142;2023-03-03T06:43:39;99049.19;;;6.15;95.81
12215;BME280;6170;42.206;24.142;2023-03-03T06:46:06;99050.66;;;6.09;95.37
12215;BME280;6170;42.206;24.142;2023-03-03T06:48:33;99063.13;;;6.09;95.90
12215;BME280;6170;42.206;24.142;2023-03-03T06:51:02;99039.84;;;5.95;95.43
12215;BME280;6170;42.206;24.142;2023-03-03T06:53:35;99053.31;;;6.17;94.86
12215;BME280;6170;42.206;24.142;2023-03-03T06:56:08;99056.47;;;6.13;94.79
12215;BME280;6170;42.206;24.142;2023-03-03T06:58:35;99054.81;;;6.28;95.03
12215;BME280;6170;42.206;24.142;2023-03-03T07:01:10;99050.97;;;6.22;95.29
12215;BME280;6170;42.206;24.142;2023-03-03T07:03:39;99051.47;;;5.94;95.49
12215;BME280;6170;42.206;24.142;2023-03-03T07:06:15;99048.31;;;5.98;95.85
12215;BME280;6170;42.206;24.142;2023-03-03T07:08:44;99051.97;;;5.89;95.97
12215;BME280;6170;42.206;24.142;2023-03-03T07:11:15;99052.16;;;5.96;95.64
12215;BME280;6170;42.206;24.142;2023-03-03T07:13:45;99035.88;;;5.99;92.71
12215;BME280;6170;42.206;24.142;2023-03-03T07:16:15;99052.34;;;6.10;91.63
12215;BME280;6170;42.206;24.142;2023-03-03T07:18:47;99052.81;;;5.98;92.23
12215;BME280;6170;42.206;24.142;2023-03-03T07:21:19;99058.16;;;6.06;92.62
12215;BME280;6170;42.206;24.142;2023-03-03T07:23:48;99063.16;;;5.93;92.70
12215;BME280;6170;42.206;24.142;2023-03-03T07:26:17;99050.66;;;6.09;92.97
12215;BME280;6170;42.206;24.142;2023-03-03T07:28:51;99056.00;;;6.01;91.61
12215;BME280;6170;42.206;24.142;2023-03-03T07:31:28;99057.31;;;6.13;90.70
12215;BME280;6170;42.206;24.142;2023-03-03T07:33:57;99047.31;;;6.15;90.88
12215;BME280;6170;42.206;24.142;2023-03-03T07:36:30;99071.59;;;6.28;91.34
12215;BME280;6170;42.206;24.142;2023-03-03T07:38:59;99057.66;;;6.18;89.28
12215;BME280;6170;42.206;24.142;2023-03-03T07:41:27;99049.84;;;6.09;91.36
12215;BME280;6170;42.206;24.142;2023-03-03T07:44:00;99048.81;;;6.18;91.83
12215;BME280;6170;42.206;24.142;2023-03-03T07:46:35;99048.81;;;6.26;92.14
12215;BME280;6170;42.206;24.142;2023-03-03T07:49:20;99046.00;;;6.27;92.04
12215;BME280;6170;42.206;24.142;2023-03-03T07:51:51;99036.34;;;6.26;91.29
12215;BME280;6170;42.206;24.142;2023-03-03T07:54:30;99046.47;;;6.31;92.69
12215;BME280;6170;42.206;24.142;2023-03-03T07:57:10;99046.13;;;6.42;93.25
12215;BME280;6170;42.206;24.142;2023-03-03T07:59:42;99041.81;;;6.33;92.04
12215;BME280;6170;42.206;24.142;2023-03-03T08:05:33;99038.66;;;6.29;91.07
12215;BME280;6170;42.206;24.142;2023-03-03T08:08:14;99043.81;;;6.39;89.04
12215;BME280;6170;42.206;24.142;2023-03-03T08:10:47;99079.50;;;6.77;90.00
12215;BME280;6170;42.206;24.142;2023-03-03T08:13:18;99026.66;;;6.33;91.12
12215;BME280;6170;42.206;24.142;2023-03-03T08:15:46;99017.91;;;6.17;90.50
12215;BME280;6170;42.206;24.142;2023-03-03T08:18:22;99031.19;;;6.25;88.95
12215;BME280;6170;42.206;24.142;2023-03-03T08:20:54;99025.06;;;6.00;90.57
12215;BME280;6170;42.206;24.142;2023-03-03T08:23:22;99031.88;;;5.95;91.30
12215;BME280;6170;42.206;24.142;2023-03-03T08:25:50;99033.88;;;6.09;91.01
12215;BME280;6170;42.206;24.142;2023-03-03T08:28:17;99060.31;;;6.10;92.60
12215;BME280;6170;42.206;24.142;2023-03-03T08:30:45;99023.06;;;5.94;92.73
12215;BME280;6170;42.206;24.142;2023-03-03T08:33:13;99000.59;;;5.72;92.72
12215;BME280;6170;42.206;24.142;2023-03-03T08:35:42;99024.22;;;5.83;92.83
12215;BME280;6170;42.206;24.142;2023-03-03T08:38:10;98981.16;;;5.39;95.70
12215;BME280;6170;42.206;24.142;2023-03-03T08:40:37;99025.69;;;5.78;92.37
12215;BME280;6170;42.206;24.142;2023-03-03T08:43:04;99031.34;;;5.59;90.88
12215;BME280;6170;42.206;24.142;2023-03-03T08:45:32;99019.16;;;5.40;92.74
12215;BME280;6170;42.206;24.142;2023-03-03T08:47:59;99041.81;;;5.76;93.60
12215;BME280;6170;42.206;24.142;2023-03-03T08:50:27;99065.31;;;6.05;92.38
12215;BME280;6170;42.206;24.142;2023-03-03T08:52:55;99018.25;;;5.90;89.00
12215;BME280;6170;42.206;24.142;2023-03-03T08:55:23;99016.44;;;6.06;89.11
12215;BME280;6170;42.206;24.142;2023-03-03T08:57:50;99009.06;;;6.16;88.39
12215;BME280;6170;42.206;24.142;2023-03-03T09:00:18;99005.59;;;6.08;90.16
12215;BME280;6170;42.206;24.142;2023-03-03T09:02:45;99011.06;;;6.30;90.54
12215;BME280;6170;42.206;24.142;2023-03-03T09:05:13;99003.41;;;6.36;90.58
12215;BME280;6170;42.206;24.142;2023-03-03T09:07:40;98991.88;;;6.43;88.20
12215;BME280;6170;42.206;24.142;2023-03-03T09:10:10;98985.81;;;6.65;88.44
12215;BME280;6170;42.206;24.142;2023-03-03T09:12:39;99010.66;;;6.58;87.42
12215;BME280;6170;42.206;24.142;2023-03-03T09:15:20;99013.44;;;6.72;87.55
12215;BME280;6170;42.206;24.142;2023-03-03T09:17:48;99027.56;;;6.73;89.93
12215;BME280;6170;42.206;24.142;2023-03-03T09:20:29;99037.97;;;6.99;88.26
12215;BME280;6170;42.206;24.142;2023-03-03T09:22:58;99009.38;;;6.46;90.05
12215;BME280;6170;42.206;24.142;2023-03-03T09:25:32;99003.13;;;6.69;86.90
12215;BME280;6170;42.206;24.142;2023-03-03T09:28:00;99003.59;;;6.73;88.42
12215;BME280;6170;42.206;24.142;2023-03-03T09:30:36;99007.72;;;6.84;87.64
12215;BME280;6170;42.206;24.142;2023-03-03T09:33:22;99047.94;;;6.50;88.47
12215;BME280;6170;42.206;24.142;2023-03-03T09:35:52;98994.06;;;6.40;90.38
12215;BME280;6170;42.206;24.142;2023-03-03T09:38:27;99000.88;;;6.42;91.55
12215;BME280;6170;42.206;24.142;2023-03-03T09:41:20;99008.63;;;6.68;90.66
12215;BME280;6170;42.206;24.142;2023-03-03T09:44:04;98978.91;;;6.87;91.56
12215;BME280;6170;42.206;24.142;2023-03-03T09:46:40;99050.09;;;7.01;93.37
12215;BME280;6170;42.206;24.142;2023-03-03T09:49:20;99045.94;;;7.38;88.67
12215;BME280;6170;42.206;24.142;2023-03-03T09:52:05;99001.94;;;7.64;88.61
12215;BME280;6170;42.206;24.142;2023-03-03T09:54:55;99044.78;;;7.86;88.33
12215;BME280;6170;42.206;24.142;2023-03-03T09:57:35;99045.06;;;7.91;89.31
12215;BME280;6170;42.206;24.142;2023-03-03T10:00:29;99039.25;;;8.25;88.38
12215;BME280;6170;42.206;24.142;2023-03-03T10:03:14;98983.81;;;7.75;88.42
12215;BME280;6170;42.206;24.142;2023-03-03T10:05:51;99031.44;;;7.86;88.40
12215;BME280;6170;42.206;24.142;2023-03-03T10:08:37;99023.41;;;8.61;87.61
12215;BME280;6170;42.206;24.142;2023-03-03T10:11:17;98979.16;;;8.29;87.86
12215;BME280;6170;42.206;24.142;2023-03-03T10:14:18;98972.50;;;8.10;84.25
12215;BME280;6170;42.206;24.142;2023-03-03T10:17:00;99016.41;;;7.85;79.65
12215;BME280;6170;42.206;24.142;2023-03-03T10:19:36;98967.03;;;7.74;84.10
12215;BME280;6170;42.206;24.142;2023-03-03T10:22:17;98963.81;;;8.31;84.23
12215;BME280;6170;42.206;24.142;2023-03-03T10:24:57;98957.78;;;7.99;85.96
12215;BME280;6170;42.206;24.142;2023-03-03T10:27:47;98934.03;;;8.04;87.57
12215;BME280;6170;42.206;24.142;2023-03-03T10:30:27;98998.00;;;8.12;86.56
12215;BME280;6170;42.206;24.142;2023-03-03T10:33:00;98942.66;;;8.29;84.74
12215;BME280;6170;42.206;24.142;2023-03-03T10:36:10;98946.78;;;7.80;85.56
12215;BME280;6170;42.206;24.142;2023-03-03T10:38:50;98952.88;;;8.40;84.55
12215;BME280;6170;42.206;24.142;2023-03-03T10:41:33;98950.34;;;8.68;82.57
12215;BME280;6170;42.206;24.142;2023-03-03T10:44:22;98934.13;;;8.11;84.00
12215;BME280;6170;42.206;24.142;2023-03-03T10:47:22;98938.78;;;8.46;85.48
12215;BME280;6170;42.206;24.142;2023-03-03T10:50:04;98941.38;;;8.40;86.04
12215;BME280;6170;42.206;24.142;2023-03-03T10:52:44;98939.53;;;8.40;80.92
12215;BME280;6170;42.206;24.142;2023-03-03T10:58:26;98976.06;;;8.54;79.51
12215;BME280;6170;42.206;24.142;2023-03-03T11:00:59;98932.81;;;7.78;80.24
12215;BME280;6170;42.206;24.142;2023-03-03T11:03:54;98920.13;;;7.94;79.51
12215;BME280;6170;42.206;24.142;2023-03-03T11:06:25;98968.81;;;8.11;81.88
12215;BME280;6170;42.206;24.142;2023-03-03T11:09:00;98911.97;;;8.25;81.30
12215;BME280;6170;42.206;24.142;2023-03-03T11:11:35;98909.94;;;8.27;83.84
12215;BME280;6170;42.206;24.142;2023-03-03T11:14:11;98954.28;;;8.87;82.22
12215;BME280;6170;42.206;24.142;2023-03-03T11:16:53;98898.66;;;8.40;83.16
12215;BME280;6170;42.206;24.142;2023-03-03T11:19:48;98890.31;;;8.20;80.61
12215;BME280;6170;42.206;24.142;2023-03-03T11:22:33;98894.69;;;8.36;80.82
12215;BME280;6170;42.206;24.142;2023-03-03T11:25:21;98893.53;;;8.60;79.13
12215;BME280;6170;42.206;24.142;2023-03-03T11:27:59;98934.50;;;8.81;80.85
12215;BME280;6170;42.206;24.142;2023-03-03T11:30:38;98891.38;;;8.84;80.83
12215;BME280;6170;42.206;24.142;2023-03-03T11:33:10;98876.31;;;8.98;80.98
12215;BME280;6170;42.206;24.142;2023-03-03T11:35:45;98892.59;;;9.03;78.54
12215;BME280;6170;42.206;24.142;2023-03-03T11:38:32;98871.91;;;8.90;78.95
12215;BME280;6170;42.206;24.142;2023-03-03T11:41:02;98871.25;;;9.52;78.43
12215;BME280;6170;42.206;24.142;2023-03-03T11:43:38;98871.84;;;9.47;75.62
12215;BME280;6170;42.206;24.142;2023-03-03T11:46:11;98866.06;;;9.44;77.06
12215;BME280;6170;42.206;24.142;2023-03-03T11:48:45;98912.16;;;9.25;76.24
12215;BME280;6170;42.206;24.142;2023-03-03T11:51:19;98866.56;;;8.90;76.33
12215;BME280;6170;42.206;24.142;2023-03-03T11:53:59;98863.38;;;8.80;79.47
12215;BME280;6170;42.206;24.142;2023-03-03T11:56:33;98852.44;;;8.96;77.45
12215;BME280;6170;42.206;24.142;2023-03-03T12:02:19;98838.38;;;8.67;75.64
12215;BME280;6170;42.206;24.142;2023-03-03T12:04:51;98845.03;;;8.41;76.82
12215;BME280;6170;42.206;24.142;2023-03-03T12:07:28;98865.09;;;8.52;78.21
12215;BME280;6170;42.206;24.142;2023-03-03T12:10:10;98835.31;;;8.70;77.01
12215;BME280;6170;42.206;24.142;2023-03-03T12:12:42;98847.53;;;8.79;79.53
12215;BME280;6170;42.206;24.142;2023-03-03T12:15:27;98853.16;;;8.33;79.79
12215;BME280;6170;42.206;24.142;2023-03-03T12:18:14;98847.00;;;8.33;78.04
12215;BME280;6170;42.206;24.142;2023-03-03T12:20:52;98847.38;;;8.00;79.88
12215;BME280;6170;42.206;24.142;2023-03-03T12:23:46;98844.50;;;8.17;80.76
12215;BME280;6170;42.206;24.142;2023-03-03T12:26:24;98844.56;;;8.23;79.44
12215;BME280;6170;42.206;24.142;2023-03-03T12:28:58;98841.31;;;8.36;82.12
12215;BME280;6170;42.206;24.142;2023-03-03T12:31:38;98833.66;;;8.69;79.71
12215;BME280;6170;42.206;24.142;2023-03-03T12:34:15;98838.13;;;8.47;79.09
12215;BME280;6170;42.206;24.142;2023-03-03T12:36:53;98832.94;;;8.60;79.33
12215;BME280;6170;42.206;24.142;2023-03-03T12:39:38;98874.31;;;8.85;78.19
12215;BME280;6170;42.206;24.142;2023-03-03T12:42:14;98835.69;;;8.67;78.05
12215;BME280;6170;42.206;24.142;2023-03-03T12:44:46;98874.34;;;9.07;77.87
12215;BME280;6170;42.206;24.142;2023-03-03T12:47:23;98831.38;;;9.08;78.95
12215;BME280;6170;42.206;24.142;2023-03-03T12:50:02;98812.81;;;8.28;79.19
12215;BME280;6170;42.206;24.142;2023-03-03T12:52:45;98817.16;;;8.14;79.88
12215;BME280;6170;42.206;24.142;2023-03-03T12:55:24;98834.75;;;8.38;81.22
12215;BME280;6170;42.206;24.142;2023-03-03T12:58:05;98821.72;;;8.50;78.35
12215;BME280;6170;42.206;24.142;2023-03-03T13:00:43;98819.69;;;8.88;80.08
12215;BME280;6170;42.206;24.142;2023-03-03T13:03:21;98819.72;;;9.37;79.20
12215;BME280;6170;42.206;24.142;2023-03-03T13:05:57;98823.69;;;9.20;77.42
12215;BME280;6170;42.206;24.142;2023-03-03T13:08:36;98816.81;;;9.11;76.56
12215;BME280;6170;42.206;24.142;2023-03-03T13:11:23;98817.31;;;9.48;77.31
12215;BME280;6170;42.206;24.142;2023-03-03T13:13:57;98813.56;;;9.15;78.58
12215;BME280;6170;42.206;24.142;2023-03-03T13:16:32;98812.16;;;9.19;77.37
12215;BME280;6170;42.206;24.142;2023-03-03T13:19:04;98817.97;;;9.51;78.39
12215;BME280;6170;42.206;24.142;2023-03-03T13:21:37;98815.22;;;9.44;76.92
12215;BME280;6170;42.206;24.142;2023-03-03T13:24:14;98817.50;;;9.47;77.27
12215;BME280;6170;42.206;24.142;2023-03-03T13:26:46;98849.00;;;9.45;77.75
12215;BME280;6170;42.206;24.142;2023-03-03T13:29:19;98790.09;;;8.68;78.64
12215;BME280;6170;42.206;24.142;2023-03-03T13:31:52;98797.84;;;9.06;76.02
12215;BME280;6170;42.206;24.142;2023-03-03T13:34:26;98788.78;;;9.28;76.39
12215;BME280;6170;42.206;24.142;2023-03-03T13:37:01;98794.56;;;9.31;77.17
12215;BME280;6170;42.206;24.142;2023-03-03T13:39:32;98843.75;;;9.86;76.88
12215;BME280;6170;42.206;24.142;2023-03-03T13:42:09;98781.03;;;9.12;77.07
12215;BME280;6170;42.206;24.142;2023-03-03T13:44:41;98791.25;;;9.01;78.04